Time;durP1;ratioP1;P1;durP2;ratioP2;P2;SDS_P1;SDS_P2;PMS_P1;PMS_P2;Temp;Humidity;BMP_temperature;BMP_pressure;BME280_temperature;BME280_humidity;BME280_pressure;Samples;Min_cycle;Max_cycle;Signal;HPM_P1;HPM_P2
2022/05/18 00:00:53;;;;;;;10.68;7.07;;;;;;;16.24;79.18;93296.06;5127820;27;20027;-50
2022/05/18 00:03:22;;;;;;;7.47;6.78;;;;;;;16.33;78.25;93284.16;5128024;27;20023;-51
2022/05/18 00:05:48;;;;;;;8.75;7.85;;;;;;;15.96;79.44;93291.25;5127712;27;20051;-52
2022/05/18 00:08:14;;;;;;;9.27;7.38;;;;;;;16.01;79.81;93284.66;5127638;27;20120;-51
2022/05/18 00:10:41;;;;;;;7.80;6.75;;;;;;;16.08;79.13;93283.78;5127912;27;20033;-51
2022/05/18 00:13:08;;;;;;;9.82;7.85;;;;;;;15.75;80.35;93285.56;5127551;27;20063;-51
2022/05/18 00:15:34;;;;;;;10.50;7.40;;;;;;;15.87;80.06;93280.88;5127362;27;20020;-50
2022/05/18 00:17:59;;;;;;;9.40;8.43;;;;;;;15.66;81.66;93289.81;5127483;27;20031;-51
2022/05/18 00:20:25;;;;;;;7.78;6.97;;;;;;;15.71;80.74;93285.28;5127382;27;20039;-51
2022/05/18 00:22:53;;;;;;;10.80;7.38;;;;;;;15.65;80.85;93285.59;5126956;27;20023;-51
2022/05/18 00:25:22;;;;;;;10.85;6.50;;;;;;;15.60;80.77;93285.88;5123777;27;20451;-51
2022/05/18 00:27:48;;;;;;;11.52;7.82;;;;;;;15.50;81.65;93288.66;5113528;28;20035;-48
2022/05/18 00:30:16;;;;;;;8.98;6.85;;;;;;;15.37;82.02;93289.06;5113590;27;20030;-52
2022/05/18 00:32:41;;;;;;;8.82;7.63;;;;;;;15.36;82.05;93295.94;5113512;28;20034;-50
2022/05/18 00:35:08;;;;;;;12.07;8.73;;;;;;;15.27;82.30;93301.50;5113689;28;20023;-49
2022/05/18 00:37:33;;;;;;;9.32;8.35;;;;;;;15.11;83.02;93298.97;5113681;28;20508;-52
2022/05/18 00:39:58;;;;;;;10.85;8.65;;;;;;;15.09;84.44;93292.53;5113334;28;20141;-51
2022/05/18 00:42:27;;;;;;;8.90;8.05;;;;;;;15.07;84.80;93284.75;5113295;28;20076;-49
2022/05/18 00:44:52;;;;;;;10.00;7.55;;;;;;;15.24;84.13;93283.19;5113226;28;20027;-50
2022/05/18 00:47:20;;;;;;;9.43;7.85;;;;;;;15.01;83.15;93244.63;5113516;27;20027;-50
2022/05/18 00:49:48;;;;;;;7.75;7.05;;;;;;;15.29;83.21;93273.81;5113449;28;20083;-50
2022/05/18 00:52:14;;;;;;;9.18;8.27;;;;;;;15.35;83.47;93274.25;5111909;28;20103;-49
2022/05/18 00:54:41;;;;;;;8.82;7.93;;;;;;;15.12;84.20;93264.28;5113365;28;20153;-50
2022/05/18 00:57:10;;;;;;;9.32;8.35;;;;;;;15.10;84.52;93264.13;5111800;28;20028;-50
2022/05/18 00:59:42;;;;;;;10.05;7.57;;;;;;;15.24;83.83;93261.66;5112905;28;20024;-51
2022/05/18 01:02:09;;;;;;;10.13;7.93;;;;;;;15.33;83.70;93268.56;5112119;28;20041;-49
2022/05/18 01:04:34;;;;;;;7.95;7.20;;;;;;;15.25;84.10;93263.13;5111620;28;20027;-50
2022/05/18 01:07:13;;;;;;;8.65;7.28;;;;;;;15.33;83.28;93260.22;5112053;28;20016;-49
2022/05/18 01:09:42;;;;;;;9.93;7.70;;;;;;;15.35;83.65;93277.03;5111691;28;20495;-49
2022/05/18 01:12:09;;;;;;;10.40;8.57;;;;;;;15.41;83.83;93275.44;5113131;28;20419;-51
2022/05/18 01:14:39;;;;;;;9.43;7.85;;;;;;;15.42;83.63;93284.53;5112534;28;20027;-49
2022/05/18 01:17:05;;;;;;;12.30;9.93;;;;;;;15.43;83.69;93283.19;5110577;28;20039;-48
2022/05/18 01:19:44;;;;;;;12.02;10.70;;;;;;;15.34;84.84;93286.69;5111432;28;20023;-51
2022/05/18 01:22:41;;;;;;;13.93;11.98;;;;;;;15.42;85.51;93282.47;5112610;28;20534;-51
2022/05/18 01:25:28;;;;;;;12.98;11.68;;;;;;;15.46;85.13;93291.16;5092117;28;20123;-50
2022/05/18 01:27:54;;;;;;;10.88;9.82;;;;;;;15.59;84.68;93289.97;5092354;28;20032;-51
2022/05/18 01:30:19;;;;;;;10.38;9.35;;;;;;;15.65;84.13;93287.63;5107838;28;20036;-50
2022/05/18 01:32:48;;;;;;;11.65;9.07;;;;;;;15.63;83.67;93285.44;5092183;28;20039;-52
2022/05/18 01:35:18;;;;;;;11.53;9.93;;;;;;;15.64;83.20;93286.16;5091927;28;20020;-51
2022/05/18 01:37:43;;;;;;;10.98;9.88;;;;;;;15.72;83.60;93295.81;5091279;28;20035;-51
2022/05/18 01:40:27;;;;;;;11.73;9.50;;;;;;;15.83;83.60;93292.44;5091827;28;20428;-51
2022/05/18 01:43:03;;;;;;;10.32;9.02;;;;;;;15.85;82.79;93286.31;5092100;28;20043;-49
2022/05/18 01:45:29;;;;;;;9.13;8.13;;;;;;;15.88;82.43;93285.13;5107772;28;20069;-50
2022/05/18 01:47:54;;;;;;;10.38;8.60;;;;;;;15.83;82.02;93275.75;5091702;28;20326;-50
2022/05/18 01:50:25;;;;;;;9.52;8.20;;;;;;;15.87;81.59;93272.53;5091661;28;20031;-50
2022/05/18 01:52:51;;;;;;;9.02;8.18;;;;;;;15.69;81.45;93265.66;5107752;28;20031;-51
2022/05/18 01:55:17;;;;;;;12.63;9.27;;;;;;;15.72;81.38;93270.06;5091462;28;20576;-50
2022/05/18 01:57:43;;;;;;;16.38;8.57;;;;;;;15.61;81.45;93270.66;5091433;28;20119;-52
2022/05/18 02:00:11;;;;;;;10.77;8.88;;;;;;;15.47;81.93;93264.03;5091435;28;20119;-49
2022/05/18 02:02:37;;;;;;;11.45;8.73;;;;;;;15.49;81.72;93253.06;5106958;28;20035;-51
2022/05/18 02:05:02;;;;;;;10.15;8.32;;;;;;;15.41;81.65;93253.19;5091653;28;20121;-51
2022/05/18 02:07:28;;;;;;;10.70;9.23;;;;;;;15.32;81.69;93262.25;5091587;28;20075;-50
2022/05/18 02:09:53;;;;;;;9.85;8.80;;;;;;;15.29;82.23;93260.63;5091557;28;20028;-51
2022/05/18 02:12:19;;;;;;;10.85;8.77;;;;;;;15.29;82.77;93265.47;5091198;28;20438;-51
2022/05/18 02:14:44;;;;;;;13.23;8.70;;;;;;;15.25;83.48;93260.34;5091016;28;20069;-52
2022/05/18 02:17:10;;;;;;;10.63;9.52;;;;;;;15.32;83.89;93253.16;5091178;28;20032;-49
2022/05/18 02:19:35;;;;;;;9.95;8.00;;;;;;;15.45;83.18;93253.50;5098318;28;20023;-50
2022/05/18 02:22:01;;;;;;;10.80;8.50;;;;;;;15.45;82.60;93256.28;5111687;28;20520;-49
2022/05/18 02:24:26;;;;;;;11.50;7.85;;;;;;;15.34;82.28;93253.31;5094497;28;20429;-50
2022/05/18 02:26:51;;;;;;;9.77;8.45;;;;;;;15.34;81.57;93256.09;5090985;28;20102;-53
2022/05/18 02:29:17;;;;;;;8.25;7.45;;;;;;;15.32;81.07;93255.94;5091171;28;20039;-52
2022/05/18 02:31:42;;;;;;;14.57;8.45;;;;;;;15.25;81.04;93257.56;5091187;28;20047;-51
2022/05/18 02:34:08;;;;;;;10.80;7.95;;;;;;;15.32;80.10;93261.50;5090759;28;20529;-50
2022/05/18 02:36:34;;;;;;;9.20;8.23;;;;;;;15.10;81.62;93261.34;5090789;28;20416;-51
2022/05/18 02:38:59;;;;;;;9.85;8.95;;;;;;;14.98;82.34;93256.94;5091038;28;20028;-53
2022/05/18 02:41:25;;;;;;;11.60;9.32;;;;;;;14.66;83.18;93227.44;5090664;28;20485;-50
2022/05/18 02:43:51;;;;;;;12.40;9.80;;;;;;;14.59;83.95;93258.16;5090681;28;20024;-49
2022/05/18 02:46:19;;;;;;;11.93;9.55;;;;;;;14.61;83.83;93261.06;5090883;28;20024;-51
2022/05/18 02:48:45;;;;;;;12.00;9.15;;;;;;;14.50;84.39;93265.13;5090653;28;20032;-50
2022/05/18 02:51:12;;;;;;;9.85;8.85;;;;;;;14.39;84.51;93269.19;5090879;28;20020;-52
2022/05/18 02:53:37;;;;;;;10.15;7.63;;;;;;;14.24;85.07;93265.84;5090379;28;20035;-49
2022/05/18 02:56:07;;;;;;;9.38;8.45;;;;;;;14.27;86.06;93265.44;5090556;28;20036;-51
2022/05/18 02:58:52;;;;;;;9.07;7.90;;;;;;;14.27;85.74;93262.66;5089276;28;20032;-50
2022/05/18 03:01:23;;;;;;;9.50;8.00;;;;;;;14.30;85.41;93264.31;5090829;28;20024;-51
2022/05/18 03:03:49;;;;;;;9.40;8.45;;;;;;;14.33;86.40;93262.44;5090736;28;20084;-52
2022/05/18 03:06:16;;;;;;;10.77;8.48;;;;;;;14.45;85.55;93263.34;5090416;28;20560;-51
2022/05/18 03:08:43;;;;;;;9.88;8.88;;;;;;;14.46;85.58;93267.59;5090706;28;20034;-50
2022/05/18 03:11:09;;;;;;;8.65;7.88;;;;;;;14.54;84.41;93265.44;5090394;28;20062;-49
2022/05/18 03:13:35;;;;;;;9.73;8.77;;;;;;;14.45;85.46;93280.00;5090587;28;20468;-51
2022/05/18 03:16:01;;;;;;;8.98;8.18;;;;;;;14.56;85.07;93284.28;5098781;28;20118;-50
2022/05/18 03:18:27;;;;;;;9.50;8.35;;;;;;;14.65;83.80;93289.91;5110843;28;20434;-51
2022/05/18 03:23:37;;;;;;;9.40;8.40;;;;;;;14.65;84.51;93291.94;5110115;28;20088;-52
2022/05/18 03:26:08;;;;;;;9.05;7.70;;;;;;;14.75;83.85;93293.44;5110480;28;20104;-50
2022/05/18 03:28:34;;;;;;;12.20;9.02;;;;;;;14.58;84.17;93290.75;5110471;28;20549;-51
2022/05/18 03:31:00;;;;;;;14.35;9.35;;;;;;;14.61;84.28;93289.59;5110575;28;20032;-52
2022/05/18 03:33:25;;;;;;;10.30;8.70;;;;;;;14.52;83.96;93295.09;5110469;28;20023;-51
2022/05/18 03:35:51;;;;;;;10.30;8.07;;;;;;;14.63;83.88;93298.09;5110717;28;20431;-51
2022/05/18 03:38:18;;;;;;;9.38;8.23;;;;;;;14.54;84.64;93301.56;5110705;28;20568;-51
2022/05/18 03:40:44;;;;;;;11.68;9.35;;;;;;;14.63;84.25;93311.25;5110683;28;20023;-51
2022/05/18 03:43:10;;;;;;;10.25;9.15;;;;;;;14.58;84.26;93287.97;5110425;28;20511;-50
2022/05/18 03:45:36;;;;;;;11.00;8.60;;;;;;;14.66;84.20;93316.38;5110284;28;20020;-52
2022/05/18 03:48:02;;;;;;;9.15;8.25;;;;;;;14.69;84.12;93309.66;5110413;28;20028;-51
2022/05/18 03:50:28;;;;;;;10.65;8.02;;;;;;;14.69;84.57;93326.31;5110294;28;20037;-52
2022/05/18 03:52:57;;;;;;;8.15;7.35;;;;;;;14.83;85.09;93318.34;5110639;28;20114;-52
2022/05/18 03:55:24;;;;;;;9.65;7.05;;;;;;;14.84;83.69;93320.53;5110556;28;20035;-52
2022/05/18 03:57:50;;;;;;;11.85;7.82;;;;;;;14.78;83.64;93320.09;5110272;28;20024;-50
2022/05/18 04:00:16;;;;;;;8.75;7.95;;;;;;;14.89;83.76;93325.09;5110508;28;20034;-52
2022/05/18 04:02:42;;;;;;;8.82;7.78;;;;;;;14.93;83.65;93328.19;5114198;28;20073;-52
2022/05/18 04:05:09;;;;;;;7.60;6.93;;;;;;;15.09;83.26;93326.59;5114333;28;20106;-51
2022/05/18 04:07:35;;;;;;;9.32;7.40;;;;;;;15.07;82.37;93331.31;5114074;28;20452;-51
2022/05/18 04:10:01;;;;;;;7.05;6.43;;;;;;;15.24;81.22;93324.91;5114002;28;20169;-52
2022/05/18 04:12:27;;;;;;;8.90;7.57;;;;;;;15.24;81.24;93327.69;5103640;28;20066;-52
2022/05/18 04:14:54;;;;;;;9.30;7.85;;;;;;;15.16;80.76;93328.53;5093508;28;20412;-49
2022/05/18 04:17:23;;;;;;;11.68;7.40;;;;;;;15.23;81.21;93328.97;5093386;28;20028;-53
2022/05/18 04:19:49;;;;;;;8.07;7.28;;;;;;;15.35;81.05;93327.13;5093681;28;20032;-51
2022/05/18 04:22:15;;;;;;;9.32;7.22;;;;;;;15.35;81.00;93324.34;5093316;28;20032;-51
2022/05/18 04:24:40;;;;;;;7.50;6.80;;;;;;;15.32;81.09;93322.72;5111410;28;20040;-49
2022/05/18 04:27:08;;;;;;;8.25;6.80;;;;;;;15.40;80.84;93317.75;5113950;28;20408;-52
2022/05/18 04:29:34;;;;;;;11.37;6.97;;;;;;;15.41;80.13;93322.00;5113878;28;20106;-49
2022/05/18 04:31:59;;;;;;;8.68;6.65;;;;;;;15.38;79.87;93295.34;5113555;28;20493;-48
2022/05/18 04:34:25;;;;;;;9.10;6.75;;;;;;;15.59;79.49;93318.53;5113671;28;20027;-51
2022/05/18 04:36:51;;;;;;;9.15;6.20;;;;;;;15.62;80.26;93324.97;5112597;28;20416;-51
2022/05/18 04:39:17;;;;;;;7.63;6.60;;;;;;;15.77;79.68;93322.66;5113685;27;20023;-51
2022/05/18 04:41:42;;;;;;;8.05;6.00;;;;;;;15.96;80.17;93327.47;5113659;28;20033;-49
2022/05/18 04:44:08;;;;;;;7.38;5.82;;;;;;;16.10;78.42;93314.56;5113341;28;20019;-51
2022/05/18 04:46:33;;;;;;;7.07;5.78;;;;;;;16.22;77.78;93312.63;5113217;28;20024;-51
2022/05/18 04:48:59;;;;;;;5.95;5.45;;;;;;;16.32;76.96;93318.19;5112631;28;20110;-51
2022/05/18 04:51:24;;;;;;;6.60;6.00;;;;;;;16.37;77.02;93314.38;5112456;28;20032;-52
2022/05/18 04:53:50;;;;;;;6.60;5.82;;;;;;;16.38;76.72;93322.16;5113379;28;20084;-50
2022/05/18 04:56:16;;;;;;;6.95;6.25;;;;;;;16.17;76.17;93296.97;5113435;28;20019;-51
2022/05/18 04:58:41;;;;;;;7.30;6.10;;;;;;;16.28;76.35;93312.34;5113336;28;20539;-50
2022/05/18 05:01:08;;;;;;;9.20;6.53;;;;;;;16.19;77.21;93315.88;5113011;28;20057;-50
2022/05/18 12:00:38;;;;;;;0.40;0.40;;;;;;;14.21;68.63;93644.66;5128488;27;20618;-47
2022/05/18 12:03:25;;;;;;;0.40;0.40;;;;;;;13.87;70.74;93648.06;5128666;27;20035;-48
2022/05/18 12:06:26;;;;;;;0.50;0.40;;;;;;;13.73;71.17;93646.84;5120897;27;20024;-51
2022/05/18 12:09:24;;;;;;;0.60;0.60;;;;;;;14.00;71.02;93652.59;5105480;28;20089;-48
2022/05/18 12:11:55;;;;;;;0.40;0.40;;;;;;;14.26;69.34;93657.59;5107943;28;20016;-48
2022/05/18 12:14:47;;;;;;;0.60;0.60;;;;;;;14.33;68.20;93671.44;5107796;28;20019;-49
2022/05/18 12:17:25;;;;;;;4.35;1.10;;;;;;;14.27;69.08;93670.88;5107975;28;20027;-50
2022/05/18 12:19:57;;;;;;;0.40;0.40;;;;;;;14.29;68.54;93675.94;5106838;28;20454;-48
2022/05/18 12:22:25;;;;;;;0.88;0.47;;;;;;;14.36;68.02;93689.00;5107190;28;20046;-48
2022/05/18 12:24:52;;;;;;;7.55;1.95;;;;;;;14.43;67.30;93683.38;5107873;28;20027;-48
2022/05/18 12:27:21;;;;;;;10.52;1.20;;;;;;;14.46;67.84;93691.88;5107298;28;20020;-50
2022/05/18 12:29:47;;;;;;;0.60;0.60;;;;;;;14.31;67.96;93698.31;5106290;28;20032;-49
2022/05/18 12:32:13;;;;;;;2.30;1.83;;;;;;;14.63;68.56;93687.09;5106033;28;20028;-51
2022/05/18 12:34:45;;;;;;;1.42;1.33;;;;;;;14.78;66.52;93697.34;5106161;28;20551;-48
2022/05/18 12:37:13;;;;;;;1.92;1.77;;;;;;;14.51;67.51;93694.44;5107561;28;20051;-49
2022/05/18 12:39:48;;;;;;;2.27;2.07;;;;;;;14.50;66.76;93701.31;5107554;28;20084;-47
2022/05/18 12:42:23;;;;;;;2.88;2.58;;;;;;;14.40;67.11;93703.97;5107140;28;20043;-48
2022/05/18 12:45:00;;;;;;;0.80;0.80;;;;;;;14.12;66.98;93725.81;5106276;28;20046;-48
2022/05/18 12:47:29;;;;;;;0.93;0.90;;;;;;;14.09;67.23;93727.69;5107063;28;20031;-50
2022/05/18 12:50:02;;;;;;;1.40;1.30;;;;;;;13.97;68.23;93714.81;5105686;28;20577;-49
2022/05/18 12:52:32;;;;;;;1.27;1.17;;;;;;;13.80;68.57;93721.00;5107376;28;20024;-48
2022/05/18 12:55:05;;;;;;;2.67;1.05;;;;;;;13.66;69.57;93719.78;5105717;28;20032;-51
2022/05/18 12:57:40;;;;;;;1.00;1.00;;;;;;;13.72;69.88;93725.84;5117011;28;20110;-49
2022/05/18 13:00:24;;;;;;;1.98;1.50;;;;;;;13.46;70.48;93729.88;5118674;27;20036;-49
2022/05/18 13:03:01;;;;;;;0.98;0.88;;;;;;;13.11;70.74;93708.72;5113951;28;20028;-47
2022/05/18 13:05:26;;;;;;;1.20;1.10;;;;;;;13.15;71.99;93725.72;5113652;28;20047;-49
2022/05/18 13:08:03;;;;;;;0.98;0.77;;;;;;;13.09;71.54;93729.97;5113441;27;20599;-48
2022/05/18 13:10:33;;;;;;;2.45;1.10;;;;;;;12.89;72.70;93746.25;5113823;28;20058;-47
2022/05/18 13:13:07;;;;;;;0.80;0.80;;;;;;;12.88;73.44;93744.03;5112275;28;20031;-49
2022/05/18 13:15:37;;;;;;;4.30;2.47;;;;;;;12.95;73.48;93752.34;5113362;28;20023;-48
2022/05/18 13:18:10;;;;;;;4.60;3.00;;;;;;;13.22;73.47;93758.22;5113607;28;20024;-49
2022/05/18 13:20:51;;;;;;;2.33;2.13;;;;;;;13.32;72.30;93767.44;5113305;28;20031;-48
2022/05/18 13:23:28;;;;;;;2.22;1.95;;;;;;;13.50;71.67;93766.28;5113228;28;20518;-48
2022/05/18 13:26:12;;;;;;;2.05;1.85;;;;;;;14.00;69.75;93780.28;5113141;28;20023;-48
2022/05/18 13:28:38;;;;;;;1.60;1.30;;;;;;;14.00;69.36;93781.03;5113343;28;20023;-47
2022/05/18 13:31:05;;;;;;;1.00;1.00;;;;;;;13.90;68.82;93782.94;5113057;28;20031;-47
2022/05/18 13:33:46;;;;;;;1.10;1.00;;;;;;;13.87;68.32;93784.06;5112129;28;20072;-48
2022/05/18 13:36:11;;;;;;;2.42;2.13;;;;;;;13.86;69.67;93787.41;5113241;28;20033;-51
2022/05/18 13:38:37;;;;;;;3.85;3.35;;;;;;;13.57;69.71;93790.47;5113185;28;20015;-48
2022/05/18 13:41:07;;;;;;;7.75;4.40;;;;;;;13.75;69.65;93793.38;5113194;28;20503;-48
2022/05/18 13:43:39;;;;;;;7.53;4.13;;;;;;;14.15;68.68;93799.66;5112873;28;20034;-49
2022/05/18 13:46:15;;;;;;;7.20;4.07;;;;;;;14.18;68.57;93795.75;5112793;27;20050;-48
2022/05/18 13:48:42;;;;;;;12.18;5.25;;;;;;;14.17;67.95;93794.28;5111787;28;20076;-48
2022/05/18 13:51:11;;;;;;;10.02;2.67;;;;;;;14.10;67.32;93786.72;5111833;28;20019;-48
2022/05/18 13:53:40;;;;;;;9.98;5.57;;;;;;;14.06;67.95;93791.91;5111507;28;20027;-48
2022/05/18 13:56:18;;;;;;;16.08;8.50;;;;;;;13.74;68.61;93797.44;5112512;28;20506;-48
2022/05/18 13:58:45;;;;;;;10.50;6.85;;;;;;;13.29;70.36;93785.22;5091011;28;20052;-49
2022/05/18 14:01:13;;;;;;;31.90;13.15;;;;;;;13.08;71.65;93812.41;5090868;28;20032;-47
2022/05/18 14:03:42;;;;;;;17.55;7.25;;;;;;;13.15;72.33;93822.00;5092347;28;20039;-47
2022/05/18 14:06:21;;;;;;;29.25;13.20;;;;;;;13.21;72.07;93812.19;5091972;28;20032;-48
2022/05/18 14:08:52;;;;;;;;;;;;;;;13.23;73.01;93823.47;5092457;28;20508;-47
2022/05/18 14:11:19;;;;;;;14.63;7.93;;;;;;;13.41;72.71;93822.31;5091121;28;19915;-47
2022/05/18 14:13:45;;;;;;;8.80;5.38;;;;;;;13.72;73.39;93827.78;5092091;28;20050;-47
2022/05/18 14:16:17;;;;;;;8.20;4.13;;;;;;;14.05;71.06;93832.84;5091786;28;20575;-47
2022/05/18 14:18:49;;;;;;;3.78;2.92;;;;;;;14.53;71.07;93839.06;5090602;28;20024;-46
2022/05/18 14:21:15;;;;;;;2.92;2.50;;;;;;;15.05;68.01;93837.94;5090775;28;20028;-46
2022/05/18 14:23:49;;;;;;;10.50;3.10;;;;;;;15.29;66.37;93842.00;5091724;28;20034;-49
2022/05/18 14:26:15;;;;;;;6.15;3.92;;;;;;;15.45;67.01;93837.81;5091812;28;20032;-47
2022/05/18 14:28:46;;;;;;;2.17;1.73;;;;;;;15.71;65.00;93837.19;5090402;28;20032;-48
2022/05/18 14:31:14;;;;;;;1.50;1.30;;;;;;;15.44;65.01;93836.31;5091505;28;20464;-48
2022/05/18 14:33:44;;;;;;;3.60;1.60;;;;;;;15.42;64.35;93852.13;5091495;28;20063;-48
2022/05/18 14:36:15;;;;;;;2.20;2.00;;;;;;;15.29;64.96;93853.13;5091372;28;20031;-48
2022/05/18 14:38:45;;;;;;;1.65;1.50;;;;;;;15.06;66.39;93866.50;5091734;28;20043;-48
2022/05/18 14:41:12;;;;;;;1.33;1.23;;;;;;;15.06;65.92;93858.91;5090461;28;20030;-48
2022/05/18 14:43:37;;;;;;;2.65;0.82;;;;;;;14.88;64.40;93854.59;5090370;28;20066;-47
2022/05/18 14:46:23;;;;;;;4.85;2.17;;;;;;;14.91;66.29;93861.81;5091250;28;20545;-48
2022/05/18 14:49:22;;;;;;;2.45;1.88;;;;;;;14.90;66.63;93863.09;5092115;28;20032;-48
2022/05/18 14:51:49;;;;;;;;;;;;;;;14.82;66.27;93875.56;5112045;28;20034;-47
2022/05/18 14:54:25;;;;;;;3.67;2.47;;;;;;;14.66;67.31;93855.47;5110131;28;19960;-48
2022/05/18 14:56:55;;;;;;;2.38;1.58;;;;;;;14.75;67.50;93851.38;5111469;28;20027;-50
2022/05/18 14:59:21;;;;;;;5.40;1.83;;;;;;;14.83;67.32;93863.91;5110063;28;20126;-48
2022/05/18 15:01:50;;;;;;;4.35;3.03;;;;;;;14.95;67.60;93861.41;5110061;28;20059;-47
2022/05/18 15:04:31;;;;;;;;;;;;;;;15.12;66.16;93859.41;5110583;28;20028;-46
2022/05/18 15:07:00;;;;;;;1.00;0.90;;;;;;;15.25;64.27;93863.94;5111267;27;19908;-48
2022/05/18 15:09:34;;;;;;;2.97;0.80;;;;;;;15.18;64.75;93846.00;5110132;28;20035;-48
2022/05/18 15:12:06;;;;;;;0.80;0.80;;;;;;;15.28;63.96;93864.84;5110345;28;20028;-48
2022/05/18 15:14:34;;;;;;;0.68;0.68;;;;;;;15.26;65.58;93876.53;5111108;28;20527;-47
2022/05/18 15:17:02;;;;;;;0.80;0.80;;;;;;;15.40;65.87;93871.44;5111464;28;20055;-48
2022/05/18 15:19:33;;;;;;;1.20;0.95;;;;;;;15.56;64.46;93879.09;5110077;28;20031;-47
2022/05/18 15:22:13;;;;;;;0.68;0.68;;;;;;;15.51;62.61;93884.88;5111130;28;20019;-50
2022/05/18 15:24:39;;;;;;;0.90;0.90;;;;;;;15.56;64.42;93879.09;5111310;28;20397;-50
2022/05/18 15:27:16;;;;;;;0.70;0.70;;;;;;;15.69;65.04;93889.91;5110921;28;20087;-48
2022/05/18 15:29:53;;;;;;;0.63;0.52;;;;;;;15.73;62.28;93881.88;5110952;28;20538;-48
2022/05/18 15:32:25;;;;;;;0.50;0.50;;;;;;;15.66;62.61;93887.50;5110838;28;20019;-48
2022/05/18 15:34:56;;;;;;;0.75;0.75;;;;;;;15.51;61.43;93896.00;5109766;28;20022;-47
2022/05/18 15:37:22;;;;;;;0.50;0.50;;;;;;;15.28;62.20;93895.44;5110811;28;20027;-50
2022/05/18 15:39:48;;;;;;;0.60;0.60;;;;;;;14.83;62.82;93896.53;5110702;28;20062;-49
2022/05/18 15:42:17;;;;;;;0.90;0.90;;;;;;;14.43;64.50;93902.84;5111052;28;20027;-49
2022/05/18 15:44:42;;;;;;;6.22;1.00;;;;;;;14.01;65.46;93921.31;5109544;28;20016;-47
2022/05/18 15:47:11;;;;;;;2.03;1.50;;;;;;;13.51;66.07;93914.75;5110517;28;20023;-47
2022/05/18 15:49:59;;;;;;;3.53;1.50;;;;;;;13.37;68.08;93913.50;5109371;28;20496;-49
2022/05/18 15:52:25;;;;;;;1.45;1.02;;;;;;;13.40;70.16;93906.09;5109736;28;20059;-50
2022/05/18 15:54:56;;;;;;;1.30;1.10;;;;;;;13.28;67.83;93913.31;5110668;28;20231;-51
2022/05/18 15:57:26;;;;;;;1.63;0.90;;;;;;;13.13;64.74;93907.75;5098991;28;20024;-49
2022/05/18 15:59:51;;;;;;;7.20;1.00;;;;;;;13.07;65.26;93909.97;5090201;28;20123;-50
2022/05/18 16:02:17;;;;;;;0.60;0.60;;;;;;;12.94;65.70;93919.94;5090426;28;20027;-49
2022/05/18 16:04:42;;;;;;;1.40;1.30;;;;;;;12.89;65.57;93931.19;5090217;28;20420;-49
2022/05/18 16:07:08;;;;;;;0.75;0.75;;;;;;;12.92;66.25;93936.38;5090117;28;20032;-47
2022/05/18 16:09:35;;;;;;;0.77;0.77;;;;;;;12.92;65.62;93946.72;5090374;28;20024;-50
2022/05/18 16:12:00;;;;;;;0.70;0.70;;;;;;;12.83;65.33;93950.03;5088943;28;20048;-48
2022/05/18 16:14:26;;;;;;;2.53;0.70;;;;;;;12.81;65.26;93958.16;5089995;28;20055;-51
2022/05/18 16:16:51;;;;;;;0.80;0.80;;;;;;;12.61;66.17;93964.56;5090399;28;20073;-46
2022/05/18 16:19:17;;;;;;;0.65;0.60;;;;;;;12.57;67.21;93959.38;5089993;28;20386;-51
2022/05/18 16:21:43;;;;;;;1.20;1.10;;;;;;;12.65;67.14;93981.56;5090357;28;20016;-51
2022/05/18 16:24:16;;;;;;;0.73;0.73;;;;;;;12.53;66.80;93991.50;5089984;28;20439;-49
2022/05/18 16:26:43;;;;;;;0.70;0.70;;;;;;;12.45;65.95;93988.69;5089127;28;20047;-49
2022/05/18 16:29:09;;;;;;;0.75;0.75;;;;;;;12.41;65.69;93985.53;5090144;28;20409;-48
2022/05/18 16:31:35;;;;;;;1.40;0.80;;;;;;;12.42;65.97;93994.59;5090208;28;20057;-49
2022/05/18 16:34:01;;;;;;;1.08;1.08;;;;;;;12.49;67.27;94002.94;5089898;28;20101;-49
2022/05/18 16:36:26;;;;;;;2.70;1.13;;;;;;;12.44;65.94;94023.22;5093639;28;20020;-47
2022/05/18 16:38:52;;;;;;;0.95;0.85;;;;;;;12.34;65.60;94016.72;5093711;28;20020;-47
2022/05/18 16:41:27;;;;;;;1.40;1.10;;;;;;;12.19;66.33;94024.94;5094736;28;20020;-48
2022/05/18 16:44:02;;;;;;;1.38;1.27;;;;;;;12.22;65.02;94023.09;5113116;28;20407;-50
2022/05/18 16:46:28;;;;;;;2.40;1.35;;;;;;;12.17;67.06;94017.16;5112685;28;20020;-50
2022/05/18 16:48:53;;;;;;;2.65;1.70;;;;;;;12.23;65.87;94019.81;5112609;28;20027;-50
2022/05/18 16:51:19;;;;;;;2.55;1.95;;;;;;;12.24;65.53;94021.25;5113833;28;20073;-47
2022/05/18 16:53:44;;;;;;;2.00;1.80;;;;;;;12.39;65.68;94018.56;5113800;28;20491;-49
2022/05/18 16:56:10;;;;;;;2.28;2.03;;;;;;;12.60;66.18;94022.00;5113612;28;20024;-48
2022/05/18 16:58:36;;;;;;;3.92;2.20;;;;;;;12.64;67.72;94019.63;5091936;28;20074;-50
2022/05/18 17:01:02;;;;;;;1.80;1.70;;;;;;;12.79;67.22;94016.16;5092395;28;20060;-47
2022/05/18 17:03:28;;;;;;;5.10;2.58;;;;;;;12.85;64.31;94023.00;5093185;28;20027;-47
2022/05/18 17:06:27;;;;;;;7.78;4.72;;;;;;;12.81;64.24;94028.16;5093525;28;20065;-50
2022/05/18 17:08:47;;;;;;;5.22;3.50;;;;;;;12.76;64.94;94036.63;5092807;28;20588;-49
2022/05/18 17:11:21;;;;;;;5.22;3.88;;;;;;;12.79;65.94;94038.31;5093069;28;20032;-47
2022/05/18 17:13:48;;;;;;;2.67;2.25;;;;;;;12.84;64.06;94040.19;5093303;28;20031;-51
2022/05/18 17:16:16;;;;;;;4.07;2.65;;;;;;;12.77;65.85;94044.41;5092932;28;20031;-48
2022/05/18 17:18:42;;;;;;;2.50;2.30;;;;;;;12.59;66.52;94044.69;5091844;28;20509;-50
2022/05/18 17:21:08;;;;;;;7.65;2.15;;;;;;;12.58;67.82;94049.50;5093171;28;20035;-47
2022/05/18 17:23:35;;;;;;;2.33;1.30;;;;;;;12.51;67.84;94041.16;5091582;28;20574;-51
2022/05/18 17:26:06;;;;;;;1.50;1.40;;;;;;;12.49;67.98;94054.81;5092766;28;20078;-49
2022/05/18 17:28:36;;;;;;;2.35;1.10;;;;;;;12.50;67.11;94051.50;5091616;28;20473;-49
2022/05/18 17:31:02;;;;;;;2.08;1.55;;;;;;;12.43;67.76;94054.25;5093054;28;20031;-50
2022/05/18 17:33:27;;;;;;;1.38;1.27;;;;;;;12.08;68.97;94059.19;5091769;28;20026;-50
2022/05/18 17:35:54;;;;;;;1.40;1.30;;;;;;;12.05;68.27;94065.81;5093036;28;20567;-50
2022/05/18 17:38:20;;;;;;;6.68;1.60;;;;;;;11.92;66.36;94073.47;5100046;28;20034;-51
2022/05/18 17:40:46;;;;;;;2.05;1.40;;;;;;;11.99;67.35;94076.31;5112886;28;20110;-50
2022/05/18 17:43:12;;;;;;;2.17;1.98;;;;;;;12.11;67.63;94085.03;5113150;27;20031;-50
2022/05/18 17:45:38;;;;;;;5.45;3.00;;;;;;;12.04;68.57;94100.31;5112741;28;20408;-48
2022/05/18 17:48:09;;;;;;;6.30;2.97;;;;;;;12.05;67.37;94093.50;5112693;28;20503;-48
2022/05/18 17:50:35;;;;;;;3.17;2.30;;;;;;;12.20;66.97;94109.47;5111648;28;20027;-50
2022/05/18 17:53:00;;;;;;;4.00;1.77;;;;;;;12.09;66.45;94115.28;5111749;28;20024;-50
2022/05/18 17:55:26;;;;;;;1.90;1.80;;;;;;;11.95;66.22;94113.91;5112883;28;20028;-47
2022/05/18 17:57:52;;;;;;;1.70;1.60;;;;;;;11.99;67.10;94123.34;5112311;28;20059;-49
2022/05/18 18:00:20;;;;;;;2.15;1.73;;;;;;;11.96;65.18;94129.22;5112789;28;20709;-48
2022/05/18 18:02:46;;;;;;;1.50;1.40;;;;;;;11.56;62.46;94119.63;5112442;28;20031;-48
2022/05/18 18:05:14;;;;;;;1.35;1.15;;;;;;;11.53;59.58;94137.28;5111464;28;20543;-50
2022/05/18 18:07:41;;;;;;;1.80;1.38;;;;;;;11.46;59.88;94144.22;5112575;28;20432;-50
2022/05/18 18:10:08;;;;;;;3.83;1.70;;;;;;;11.35;61.58;94150.00;5111039;28;20072;-46
2022/05/18 18:12:33;;;;;;;4.00;1.52;;;;;;;11.29;61.33;94147.38;5112276;28;20102;-49
2022/05/18 18:14:59;;;;;;;2.10;1.33;;;;;;;11.15;61.57;94153.47;5112465;28;20039;-47
2022/05/18 18:17:25;;;;;;;3.50;1.60;;;;;;;11.06;61.70;94151.91;5112512;28;20028;-48
2022/05/18 18:19:53;;;;;;;3.72;1.33;;;;;;;11.04;61.70;94162.00;5110907;28;20051;-48
2022/05/18 18:22:19;;;;;;;1.60;1.50;;;;;;;10.90;61.89;94160.53;5111972;28;20035;-49
2022/05/18 18:24:46;;;;;;;3.22;1.35;;;;;;;10.98;63.07;94164.16;5112106;28;20027;-49
2022/05/18 18:27:12;;;;;;;1.60;1.50;;;;;;;11.01;62.56;94172.09;5110743;28;20041;-49
2022/05/18 18:29:37;;;;;;;4.47;3.22;;;;;;;10.97;62.96;94182.00;5111838;28;20024;-50
2022/05/18 18:32:04;;;;;;;5.63;3.28;;;;;;;10.86;63.39;94188.50;5112161;28;20016;-47
2022/05/18 18:34:29;;;;;;;3.45;2.30;;;;;;;10.79;64.82;94183.59;5111807;28;20043;-47
2022/05/18 18:36:56;;;;;;;5.80;2.20;;;;;;;10.74;65.07;94203.06;5111822;28;20513;-48
2022/05/18 18:39:26;;;;;;;4.20;2.13;;;;;;;10.69;65.49;94201.88;5112005;28;20016;-48